sensor_id;sensor_type;location;lat;lon;timestamp;temperature;humidity
51305;HTU21D;37392;50.964;6.952;2022-10-31T00:00:46;12.82;108.23
51305;HTU21D;37392;50.964;6.952;2022-10-31T00:03:12;12.77;108.43
51305;HTU21D;37392;50.964;6.952;2022-10-31T00:05:42;12.74;108.97
51305;HTU21D;37392;50.964;6.952;2022-10-31T00:08:11;12.80;109.59
51305;HTU21D;37392;50.964;6.952;2022-10-31T00:10:38;12.81;109.62
51305;HTU21D;37392;50.964;6.952;2022-10-31T00:13:05;12.78;109.60
51305;HTU21D;37392;50.964;6.952;2022-10-31T00:15:33;12.77;109.74
51305;HTU21D;37392;50.964;6.952;2022-10-31T00:18:01;12.75;109.88
51305;HTU21D;37392;50.964;6.952;2022-10-31T00:20:27;12.72;110.19
51305;HTU21D;37392;50.964;6.952;2022-10-31T00:22:52;12.75;110.65
51305;HTU21D;37392;50.964;6.952;2022-10-31T00:25:18;12.77;110.43
51305;HTU21D;37392;50.964;6.952;2022-10-31T00:27:45;12.72;110.44
51305;HTU21D;37392;50.964;6.952;2022-10-31T00:30:16;12.70;110.66
51305;HTU21D;37392;50.964;6.952;2022-10-31T00:32:42;12.67;110.86
51305;HTU21D;37392;50.964;6.952;2022-10-31T00:35:08;12.73;110.86
51305;HTU21D;37392;50.964;6.952;2022-10-31T00:37:33;12.72;111.21
51305;HTU21D;37392;50.964;6.952;2022-10-31T00:39:59;12.74;111.13
51305;HTU21D;37392;50.964;6.952;2022-10-31T00:42:25;12.72;110.55
51305;HTU21D;37392;50.964;6.952;2022-10-31T00:44:50;12.71;110.76
51305;HTU21D;37392;50.964;6.952;2022-10-31T00:47:16;12.71;110.55
51305;HTU21D;37392;50.964;6.952;2022-10-31T00:49:41;12.69;110.74
51305;HTU21D;37392;50.964;6.952;2022-10-31T00:52:07;12.66;110.69
51305;HTU21D;37392;50.964;6.952;2022-10-31T00:54:32;12.65;111.00
51305;HTU21D;37392;50.964;6.952;2022-10-31T00:56:58;12.71;110.71
51305;HTU21D;37392;50.964;6.952;2022-10-31T00:59:23;12.66;110.55
51305;HTU21D;37392;50.964;6.952;2022-10-31T01:01:49;12.69;111.39
51305;HTU21D;37392;50.964;6.952;2022-10-31T01:04:15;12.73;110.71
51305;HTU21D;37392;50.964;6.952;2022-10-31T01:06:41;12.70;110.55
51305;HTU21D;37392;50.964;6.952;2022-10-31T01:09:07;12.70;110.84
51305;HTU21D;37392;50.964;6.952;2022-10-31T01:11:32;12.69;110.75
51305;HTU21D;37392;50.964;6.952;2022-10-31T01:13:58;12.70;111.07
51305;HTU21D;37392;50.964;6.952;2022-10-31T01:16:25;12.70;110.86
51305;HTU21D;37392;50.964;6.952;2022-10-31T01:18:52;12.69;110.63
51305;HTU21D;37392;50.964;6.952;2022-10-31T01:21:23;12.65;110.95
51305;HTU21D;37392;50.964;6.952;2022-10-31T01:23:52;12.65;111.42
51305;HTU21D;37392;50.964;6.952;2022-10-31T01:26:20;12.74;111.27
51305;HTU21D;37392;50.964;6.952;2022-10-31T01:29:01;12.73;110.76
51305;HTU21D;37392;50.964;6.952;2022-10-31T01:31:33;12.70;110.63
51305;HTU21D;37392;50.964;6.952;2022-10-31T01:34:02;12.67;110.94
51305;HTU21D;37392;50.964;6.952;2022-10-31T01:36:30;12.65;111.05
51305;HTU21D;37392;50.964;6.952;2022-10-31T01:38:59;12.66;111.10
51305;HTU21D;37392;50.964;6.952;2022-10-31T01:41:28;12.64;111.16
51305;HTU21D;37392;50.964;6.952;2022-10-31T01:43:58;12.61;111.28
51305;HTU21D;37392;50.964;6.952;2022-10-31T01:46:32;12.63;111.42
51305;HTU21D;37392;50.964;6.952;2022-10-31T01:49:03;12.59;111.39
51305;HTU21D;37392;50.964;6.952;2022-10-31T01:51:37;12.60;111.53
51305;HTU21D;37392;50.964;6.952;2022-10-31T01:54:08;12.59;111.38
51305;HTU21D;37392;50.964;6.952;2022-10-31T01:56:39;12.50;111.36
51305;HTU21D;37392;50.964;6.952;2022-10-31T01:59:09;12.44;111.77
51305;HTU21D;37392;50.964;6.952;2022-10-31T02:01:37;12.37;112.13
51305;HTU21D;37392;50.964;6.952;2022-10-31T02:04:03;12.34;112.48
51305;HTU21D;37392;50.964;6.952;2022-10-31T02:06:40;12.34;112.56
51305;HTU21D;37392;50.964;6.952;2022-10-31T02:09:19;12.26;112.73
51305;HTU21D;37392;50.964;6.952;2022-10-31T02:11:51;12.20;112.80
51305;HTU21D;37392;50.964;6.952;2022-10-31T02:14:18;12.14;112.82
51305;HTU21D;37392;50.964;6.952;2022-10-31T02:16:46;12.11;113.16
51305;HTU21D;37392;50.964;6.952;2022-10-31T02:19:20;12.04;112.90
51305;HTU21D;37392;50.964;6.952;2022-10-31T02:28:31;11.74;113.18
51305;HTU21D;37392;50.964;6.952;2022-10-31T02:34:01;11.68;113.63
51305;HTU21D;37392;50.964;6.952;2022-10-31T02:36:56;11.67;113.73
51305;HTU21D;37392;50.964;6.952;2022-10-31T02:39:27;11.68;113.76
51305;HTU21D;37392;50.964;6.952;2022-10-31T02:42:59;11.69;113.74
51305;HTU21D;37392;50.964;6.952;2022-10-31T02:49:10;11.83;114.00
51305;HTU21D;37392;50.964;6.952;2022-10-31T02:51:39;11.99;113.87
51305;HTU21D;37392;50.964;6.952;2022-10-31T02:54:04;12.15;113.85
51305;HTU21D;37392;50.964;6.952;2022-10-31T02:56:30;12.36;113.48
51305;HTU21D;37392;50.964;6.952;2022-10-31T02:59:00;12.47;112.50
51305;HTU21D;37392;50.964;6.952;2022-10-31T03:01:43;12.56;111.84
51305;HTU21D;37392;50.964;6.952;2022-10-31T03:07:46;12.74;111.50
51305;HTU21D;37392;50.964;6.952;2022-10-31T03:10:42;12.71;111.53
51305;HTU21D;37392;50.964;6.952;2022-10-31T03:19:05;12.63;111.73
51305;HTU21D;37392;50.964;6.952;2022-10-31T03:24:05;12.55;112.58
51305;HTU21D;37392;50.964;6.952;2022-10-31T03:26:32;12.52;112.67
51305;HTU21D;37392;50.964;6.952;2022-10-31T03:29:05;12.51;112.75
51305;HTU21D;37392;50.964;6.952;2022-10-31T03:31:39;12.49;112.85
51305;HTU21D;37392;50.964;6.952;2022-10-31T03:34:09;12.53;113.24
51305;HTU21D;37392;50.964;6.952;2022-10-31T03:36:37;12.60;112.93
51305;HTU21D;37392;50.964;6.952;2022-10-31T03:39:06;12.66;112.52
51305;HTU21D;37392;50.964;6.952;2022-10-31T03:41:40;12.70;112.32
51305;HTU21D;37392;50.964;6.952;2022-10-31T03:44:11;12.66;112.00
51305;HTU21D;37392;50.964;6.952;2022-10-31T03:46:43;12.60;112.32
51305;HTU21D;37392;50.964;6.952;2022-10-31T03:49:09;12.53;112.57
51305;HTU21D;37392;50.964;6.952;2022-10-31T03:54:40;12.42;112.77
51305;HTU21D;37392;50.964;6.952;2022-10-31T03:57:14;12.37;112.74
51305;HTU21D;37392;50.964;6.952;2022-10-31T03:59:45;12.33;112.89
51305;HTU21D;37392;50.964;6.952;2022-10-31T04:02:17;12.42;112.56
51305;HTU21D;37392;50.964;6.952;2022-10-31T04:04:45;12.37;112.70
51305;HTU21D;37392;50.964;6.952;2022-10-31T04:07:12;12.42;112.58
51305;HTU21D;37392;50.964;6.952;2022-10-31T04:09:41;12.40;112.45
51305;HTU21D;37392;50.964;6.952;2022-10-31T04:12:12;12.33;112.45
51305;HTU21D;37392;50.964;6.952;2022-10-31T04:14:41;12.27;112.74
51305;HTU21D;37392;50.964;6.952;2022-10-31T04:17:12;12.26;113.16
51305;HTU21D;37392;50.964;6.952;2022-10-31T04:19:39;12.23;113.26
51305;HTU21D;37392;50.964;6.952;2022-10-31T04:22:04;12.23;113.32
51305;HTU21D;37392;50.964;6.952;2022-10-31T04:24:30;12.26;113.33
51305;HTU21D;37392;50.964;6.952;2022-10-31T04:26:56;12.28;113.26
51305;HTU21D;37392;50.964;6.952;2022-10-31T04:29:23;12.29;113.05
51305;HTU21D;37392;50.964;6.952;2022-10-31T04:31:49;12.26;113.08
51305;HTU21D;37392;50.964;6.952;2022-10-31T04:34:15;12.23;113.24
51305;HTU21D;37392;50.964;6.952;2022-10-31T04:36:40;12.22;113.29
51305;HTU21D;37392;50.964;6.952;2022-10-31T04:39:06;12.15;113.16
51305;HTU21D;37392;50.964;6.952;2022-10-31T04:41:31;12.13;113.55
51305;HTU21D;37392;50.964;6.952;2022-10-31T04:43:57;12.20;113.45
51305;HTU21D;37392;50.964;6.952;2022-10-31T04:46:22;12.17;112.99
51305;HTU21D;37392;50.964;6.952;2022-10-31T04:48:48;12.15;112.87
51305;HTU21D;37392;50.964;6.952;2022-10-31T04:51:14;12.07;112.85
51305;HTU21D;37392;50.964;6.952;2022-10-31T04:53:39;11.96;112.84
51305;HTU21D;37392;50.964;6.952;2022-10-31T04:56:05;11.94;113.06
51305;HTU21D;37392;50.964;6.952;2022-10-31T04:58:31;11.93;113.04
51305;HTU21D;37392;50.964;6.952;2022-10-31T05:00:57;12.00;113.22
51305;HTU21D;37392;50.964;6.952;2022-10-31T05:03:22;11.97;112.90
51305;HTU21D;37392;50.964;6.952;2022-10-31T05:05:48;11.98;112.84
51305;HTU21D;37392;50.964;6.952;2022-10-31T05:08:14;11.97;112.42
51305;HTU21D;37392;50.964;6.952;2022-10-31T05:10:40;12.00;112.45
51305;HTU21D;37392;50.964;6.952;2022-10-31T05:13:06;12.05;111.84
51305;HTU21D;37392;50.964;6.952;2022-10-31T05:15:32;12.00;111.68
51305;HTU21D;37392;50.964;6.952;2022-10-31T05:17:58;12.01;111.48
51305;HTU21D;37392;50.964;6.952;2022-10-31T05:20:26;11.93;111.44
51305;HTU21D;37392;50.964;6.952;2022-10-31T05:22:56;11.89;111.88
51305;HTU21D;37392;50.964;6.952;2022-10-31T05:25:24;11.84;112.19
51305;HTU21D;37392;50.964;6.952;2022-10-31T05:27:52;11.76;112.29
51305;HTU21D;37392;50.964;6.952;2022-10-31T05:30:27;11.73;112.52
51305;HTU21D;37392;50.964;6.952;2022-10-31T05:32:54;11.77;112.76
51305;HTU21D;37392;50.964;6.952;2022-10-31T05:35:23;11.78;112.55
51305;HTU21D;37392;50.964;6.952;2022-10-31T05:37:50;11.78;112.44
51305;HTU21D;37392;50.964;6.952;2022-10-31T05:40:17;11.73;112.52
51305;HTU21D;37392;50.964;6.952;2022-10-31T05:42:44;11.70;112.57
51305;HTU21D;37392;50.964;6.952;2022-10-31T05:45:12;11.58;112.76
51305;HTU21D;37392;50.964;6.952;2022-10-31T05:47:39;11.54;113.29
51305;HTU21D;37392;50.964;6.952;2022-10-31T05:50:06;11.44;113.51
51305;HTU21D;37392;50.964;6.952;2022-10-31T05:52:32;11.40;113.75
51305;HTU21D;37392;50.964;6.952;2022-10-31T05:54:58;11.34;113.95
51305;HTU21D;37392;50.964;6.952;2022-10-31T05:57:23;11.37;114.45
51305;HTU21D;37392;50.964;6.952;2022-10-31T05:59:49;11.30;114.23
51305;HTU21D;37392;50.964;6.952;2022-10-31T06:02:23;11.25;114.34
51305;HTU21D;37392;50.964;6.952;2022-10-31T06:04:48;11.23;114.51
51305;HTU21D;37392;50.964;6.952;2022-10-31T06:07:14;11.19;114.61
51305;HTU21D;37392;50.964;6.952;2022-10-31T06:09:39;11.10;114.50
51305;HTU21D;37392;50.964;6.952;2022-10-31T06:12:05;10.99;114.54
51305;HTU21D;37392;50.964;6.952;2022-10-31T06:14:30;11.00;115.11
51305;HTU21D;37392;50.964;6.952;2022-10-31T06:16:56;10.99;115.61
51305;HTU21D;37392;50.964;6.952;2022-10-31T06:19:22;11.00;115.40
51305;HTU21D;37392;50.964;6.952;2022-10-31T06:21:47;11.05;115.51
51305;HTU21D;37392;50.964;6.952;2022-10-31T06:24:13;11.03;115.44
51305;HTU21D;37392;50.964;6.952;2022-10-31T06:26:40;11.05;115.41
51305;HTU21D;37392;50.964;6.952;2022-10-31T06:29:06;11.10;115.58
51305;HTU21D;37392;50.964;6.952;2022-10-31T06:31:31;11.14;115.32
51305;HTU21D;37392;50.964;6.952;2022-10-31T06:33:57;11.24;115.18
51305;HTU21D;37392;50.964;6.952;2022-10-31T06:36:22;11.29;114.62
51305;HTU21D;37392;50.964;6.952;2022-10-31T06:38:48;11.34;114.43
51305;HTU21D;37392;50.964;6.952;2022-10-31T06:41:13;11.39;114.16
51305;HTU21D;37392;50.964;6.952;2022-10-31T06:43:39;11.53;114.03
51305;HTU21D;37392;50.964;6.952;2022-10-31T06:46:05;11.62;113.51
51305;HTU21D;37392;50.964;6.952;2022-10-31T06:48:31;11.66;113.13
51305;HTU21D;37392;50.964;6.952;2022-10-31T06:51:00;11.70;113.03
51305;HTU21D;37392;50.964;6.952;2022-10-31T06:53:28;11.77;112.74
51305;HTU21D;37392;50.964;6.952;2022-10-31T06:55:56;11.89;111.91
51305;HTU21D;37392;50.964;6.952;2022-10-31T06:58:22;12.02;111.26
51305;HTU21D;37392;50.964;6.952;2022-10-31T07:00:48;12.11;110.23
51305;HTU21D;37392;50.964;6.952;2022-10-31T07:03:14;12.17;109.63
51305;HTU21D;37392;50.964;6.952;2022-10-31T07:05:41;12.25;109.01
51305;HTU21D;37392;50.964;6.952;2022-10-31T07:08:11;12.30;108.85
51305;HTU21D;37392;50.964;6.952;2022-10-31T07:10:39;12.37;108.88
51305;HTU21D;37392;50.964;6.952;2022-10-31T07:13:08;12.45;108.69
51305;HTU21D;37392;50.964;6.952;2022-10-31T07:15:39;12.56;108.03
51305;HTU21D;37392;50.964;6.952;2022-10-31T07:18:09;12.59;107.16
51305;HTU21D;37392;50.964;6.952;2022-10-31T07:20:35;12.67;106.92
51305;HTU21D;37392;50.964;6.952;2022-10-31T07:23:01;12.75;106.46
51305;HTU21D;37392;50.964;6.952;2022-10-31T07:25:27;12.80;106.13
51305;HTU21D;37392;50.964;6.952;2022-10-31T07:27:52;12.85;105.60
51305;HTU21D;37392;50.964;6.952;2022-10-31T07:30:18;12.96;105.76
51305;HTU21D;37392;50.964;6.952;2022-10-31T07:32:46;13.07;104.89
51305;HTU21D;37392;50.964;6.952;2022-10-31T07:35:15;13.15;104.36
51305;HTU21D;37392;50.964;6.952;2022-10-31T07:37:43;13.24;104.15
51305;HTU21D;37392;50.964;6.952;2022-10-31T07:40:09;13.30;103.70
51305;HTU21D;37392;50.964;6.952;2022-10-31T07:42:36;13.37;103.60
51305;HTU21D;37392;50.964;6.952;2022-10-31T07:45:06;13.51;103.27
51305;HTU21D;37392;50.964;6.952;2022-10-31T07:47:47;13.66;103.00
51305;HTU21D;37392;50.964;6.952;2022-10-31T07:50:19;13.76;101.38
51305;HTU21D;37392;50.964;6.952;2022-10-31T07:52:46;13.86;101.61
51305;HTU21D;37392;50.964;6.952;2022-10-31T07:55:13;13.98;100.79
51305;HTU21D;37392;50.964;6.952;2022-10-31T07:57:39;14.09;100.29
51305;HTU21D;37392;50.964;6.952;2022-10-31T08:00:09;14.05;99.53
51305;HTU21D;37392;50.964;6.952;2022-10-31T08:02:35;14.05;99.07
51305;HTU21D;37392;50.964;6.952;2022-10-31T08:05:01;14.12;98.51
51305;HTU21D;37392;50.964;6.952;2022-10-31T08:07:34;14.17;98.48
51305;HTU21D;37392;50.964;6.952;2022-10-31T08:10:01;14.15;98.39
51305;HTU21D;37392;50.964;6.952;2022-10-31T08:12:26;14.22;98.11
51305;HTU21D;37392;50.964;6.952;2022-10-31T08:14:52;14.24;97.84
51305;HTU21D;37392;50.964;6.952;2022-10-31T08:17:17;14.26;97.75
51305;HTU21D;37392;50.964;6.952;2022-10-31T08:19:43;14.28;97.86
51305;HTU21D;37392;50.964;6.952;2022-10-31T08:22:08;14.38;97.50
51305;HTU21D;37392;50.964;6.952;2022-10-31T08:24:34;14.42;96.79
51305;HTU21D;37392;50.964;6.952;2022-10-31T08:26:59;14.48;96.44
51305;HTU21D;37392;50.964;6.952;2022-10-31T08:29:25;14.57;95.88
51305;HTU21D;37392;50.964;6.952;2022-10-31T08:31:51;14.58;95.70
51305;HTU21D;37392;50.964;6.952;2022-10-31T08:34:16;14.57;95.76
51305;HTU21D;37392;50.964;6.952;2022-10-31T08:36:42;14.70;95.72
51305;HTU21D;37392;50.964;6.952;2022-10-31T08:39:10;14.79;95.10
51305;HTU21D;37392;50.964;6.952;2022-10-31T08:41:35;14.89;94.65
51305;HTU21D;37392;50.964;6.952;2022-10-31T08:44:01;14.96;94.00
51305;HTU21D;37392;50.964;6.952;2022-10-31T08:46:26;14.94;93.93
51305;HTU21D;37392;50.964;6.952;2022-10-31T08:48:52;14.97;93.59
51305;HTU21D;37392;50.964;6.952;2022-10-31T08:51:17;15.10;93.04
51305;HTU21D;37392;50.964;6.952;2022-10-31T08:53:43;15.12;92.69
51305;HTU21D;37392;50.964;6.952;2022-10-31T08:56:09;15.11;93.10
51305;HTU21D;37392;50.964;6.952;2022-10-31T08:58:34;15.16;92.88
51305;HTU21D;37392;50.964;6.952;2022-10-31T09:01:00;15.27;92.42
51305;HTU21D;37392;50.964;6.952;2022-10-31T09:03:29;15.34;91.82
51305;HTU21D;37392;50.964;6.952;2022-10-31T09:05:58;15.51;91.48
51305;HTU21D;37392;50.964;6.952;2022-10-31T09:08:24;15.57;90.74
51305;HTU21D;37392;50.964;6.952;2022-10-31T09:10:51;15.66;90.83
51305;HTU21D;37392;50.964;6.952;2022-10-31T09:13:22;15.65;90.45
51305;HTU21D;37392;50.964;6.952;2022-10-31T09:15:48;15.59;90.64
51305;HTU21D;37392;50.964;6.952;2022-10-31T09:18:16;15.61;90.63
51305;HTU21D;37392;50.964;6.952;2022-10-31T09:20:45;15.68;90.45
51305;HTU21D;37392;50.964;6.952;2022-10-31T09:23:17;15.72;90.33
51305;HTU21D;37392;50.964;6.952;2022-10-31T09:25:48;15.77;90.18
51305;HTU21D;37392;50.964;6.952;2022-10-31T09:28:19;15.89;89.84
51305;HTU21D;37392;50.964;6.952;2022-10-31T09:30:51;15.91;89.69
51305;HTU21D;37392;50.964;6.952;2022-10-31T09:33:18;15.99;89.57
51305;HTU21D;37392;50.964;6.952;2022-10-31T09:35:44;16.07;89.30
51305;HTU21D;37392;50.964;6.952;2022-10-31T09:38:15;16.18;88.97
51305;HTU21D;37392;50.964;6.952;2022-10-31T09:40:54;16.35;88.43
51305;HTU21D;37392;50.964;6.952;2022-10-31T09:52:18;18.22;82.16
51305;HTU21D;37392;50.964;6.952;2022-10-31T09:54:54;18.83;79.84
51305;HTU21D;37392;50.964;6.952;2022-10-31T09:57:31;19.51;78.01
51305;HTU21D;37392;50.964;6.952;2022-10-31T10:00:02;19.76;76.23
51305;HTU21D;37392;50.964;6.952;2022-10-31T10:02:39;20.15;75.31
51305;HTU21D;37392;50.964;6.952;2022-10-31T10:05:12;20.78;73.35
51305;HTU21D;37392;50.964;6.952;2022-10-31T10:19:50;21.43;70.92
51305;HTU21D;37392;50.964;6.952;2022-10-31T10:25:14;21.42;70.45
51305;HTU21D;37392;50.964;6.952;2022-10-31T10:30:44;21.44;70.07
51305;HTU21D;37392;50.964;6.952;2022-10-31T10:36:00;20.53;72.84
51305;HTU21D;37392;50.964;6.952;2022-10-31T10:38:48;20.22;74.27
51305;HTU21D;37392;50.964;6.952;2022-10-31T10:41:22;20.09;75.25
51305;HTU21D;37392;50.964;6.952;2022-10-31T10:43:50;20.12;75.52
51305;HTU21D;37392;50.964;6.952;2022-10-31T10:53:01;20.03;76.28
51305;HTU21D;37392;50.964;6.952;2022-10-31T10:55:54;19.90;76.53
51305;HTU21D;37392;50.964;6.952;2022-10-31T10:58:24;19.95;76.33
51305;HTU21D;37392;50.964;6.952;2022-10-31T11:04:24;19.76;76.57
51305;HTU21D;37392;50.964;6.952;2022-10-31T11:07:07;19.52;77.09
51305;HTU21D;37392;50.964;6.952;2022-10-31T11:09:35;19.60;77.32
51305;HTU21D;37392;50.964;6.952;2022-10-31T11:14:55;19.44;77.65
51305;HTU21D;37392;50.964;6.952;2022-10-31T11:17:36;19.51;77.73
51305;HTU21D;37392;50.964;6.952;2022-10-31T11:22:41;20.01;76.28
51305;HTU21D;37392;50.964;6.952;2022-10-31T11:27:46;20.04;75.79
51305;HTU21D;37392;50.964;6.952;2022-10-31T11:30:13;19.99;75.68
51305;HTU21D;37392;50.964;6.952;2022-10-31T11:32:48;19.82;76.28
51305;HTU21D;37392;50.964;6.952;2022-10-31T11:35:21;19.85;76.47
51305;HTU21D;37392;50.964;6.952;2022-10-31T11:37:49;19.71;76.57
51305;HTU21D;37392;50.964;6.952;2022-10-31T11:40:21;19.48;77.24
51305;HTU21D;37392;50.964;6.952;2022-10-31T11:42:52;19.40;77.53
51305;HTU21D;37392;50.964;6.952;2022-10-31T11:47:51;19.31;78.07
51305;HTU21D;37392;50.964;6.952;2022-10-31T11:50:40;19.30;77.92
51305;HTU21D;37392;50.964;6.952;2022-10-31T11:53:17;19.40;77.69
51305;HTU21D;37392;50.964;6.952;2022-10-31T11:55:45;19.37;77.93
51305;HTU21D;37392;50.964;6.952;2022-10-31T11:58:23;19.39;77.82
51305;HTU21D;37392;50.964;6.952;2022-10-31T12:00:55;19.44;77.91
51305;HTU21D;37392;50.964;6.952;2022-10-31T12:03:49;19.42;77.87
51305;HTU21D;37392;50.964;6.952;2022-10-31T12:06:35;19.39;77.93
51305;HTU21D;37392;50.964;6.952;2022-10-31T12:09:04;19.44;78.07
51305;HTU21D;37392;50.964;6.952;2022-10-31T12:15:31;19.54;77.75
51305;HTU21D;37392;50.964;6.952;2022-10-31T12:26:45;19.59;76.71
51305;HTU21D;37392;50.964;6.952;2022-10-31T12:30:28;19.57;76.55
51305;HTU21D;37392;50.964;6.952;2022-10-31T12:32:57;19.55;76.55
51305;HTU21D;37392;50.964;6.952;2022-10-31T12:39:19;19.56;76.21
51305;HTU21D;37392;50.964;6.952;2022-10-31T12:50:51;19.54;75.96
51305;HTU21D;37392;50.964;6.952;2022-10-31T12:59:35;19.59;76.22
51305;HTU21D;37392;50.964;6.952;2022-10-31T13:02:20;19.58;75.92
51305;HTU21D;37392;50.964;6.952;2022-10-31T13:07:43;19.70;75.97
51305;HTU21D;37392;50.964;6.952;2022-10-31T13:12:54;19.76;75.74
51305;HTU21D;37392;50.964;6.952;2022-10-31T13:15:27;19.81;75.93
51305;HTU21D;37392;50.964;6.952;2022-10-31T13:17:57;19.82;75.95
51305;HTU21D;37392;50.964;6.952;2022-10-31T13:20:29;19.86;75.86
51305;HTU21D;37392;50.964;6.952;2022-10-31T13:25:54;20.05;75.76
51305;HTU21D;37392;50.964;6.952;2022-10-31T13:29:08;20.15;75.55
51305;HTU21D;37392;50.964;6.952;2022-10-31T13:31:08;20.19;75.36
51305;HTU21D;37392;50.964;6.952;2022-10-31T13:42:18;20.16;74.29
51305;HTU21D;37392;50.964;6.952;2022-10-31T13:44:48;20.12;74.10
51305;HTU21D;37392;50.964;6.952;2022-10-31T13:49:51;19.99;74.44
51305;HTU21D;37392;50.964;6.952;2022-10-31T13:52:25;19.96;74.80
51305;HTU21D;37392;50.964;6.952;2022-10-31T13:54:52;19.91;75.09
51305;HTU21D;37392;50.964;6.952;2022-10-31T13:57:30;19.89;75.21
51305;HTU21D;37392;50.964;6.952;2022-10-31T14:02:48;19.81;75.82
51305;HTU21D;37392;50.964;6.952;2022-10-31T14:05:30;19.75;76.12
51305;HTU21D;37392;50.964;6.952;2022-10-31T14:08:00;19.72;76.24
51305;HTU21D;37392;50.964;6.952;2022-10-31T14:10:32;19.68;76.67
51305;HTU21D;37392;50.964;6.952;2022-10-31T14:13:34;19.74;76.77
51305;HTU21D;37392;50.964;6.952;2022-10-31T14:16:27;19.65;77.04
51305;HTU21D;37392;50.964;6.952;2022-10-31T14:19:19;19.66;77.25
51305;HTU21D;37392;50.964;6.952;2022-10-31T14:21:47;19.63;77.30
51305;HTU21D;37392;50.964;6.952;2022-10-31T14:29:47;19.61;77.16
51305;HTU21D;37392;50.964;6.952;2022-10-31T14:34:40;19.57;77.53
51305;HTU21D;37392;50.964;6.952;2022-10-31T14:40:31;19.55;77.41
51305;HTU21D;37392;50.964;6.952;2022-10-31T14:45:59;19.58;77.20
51305;HTU21D;37392;50.964;6.952;2022-10-31T14:48:50;19.58;77.05
51305;HTU21D;37392;50.964;6.952;2022-10-31T14:51:44;19.59;76.83
51305;HTU21D;37392;50.964;6.952;2022-10-31T14:54:15;19.58;77.05
51305;HTU21D;37392;50.964;6.952;2022-10-31T14:57:06;19.59;77.00
51305;HTU21D;37392;50.964;6.952;2022-10-31T14:59:42;19.60;76.77
51305;HTU21D;37392;50.964;6.952;2022-10-31T15:02:21;19.54;76.83
51305;HTU21D;37392;50.964;6.952;2022-10-31T15:04:53;19.50;77.08
51305;HTU21D;37392;50.964;6.952;2022-10-31T15:07:24;19.44;77.15
51305;HTU21D;37392;50.964;6.952;2022-10-31T15:09:59;19.43;77.14
51305;HTU21D;37392;50.964;6.952;2022-10-31T15:12:33;19.37;77.26
51305;HTU21D;37392;50.964;6.952;2022-10-31T15:15:35;19.32;77.44
51305;HTU21D;37392;50.964;6.952;2022-10-31T15:18:04;19.29;77.43
51305;HTU21D;37392;50.964;6.952;2022-10-31T15:20:36;19.26;77.60
51305;HTU21D;37392;50.964;6.952;2022-10-31T15:23:11;19.21;77.66
51305;HTU21D;37392;50.964;6.952;2022-10-31T15:25:42;19.16;77.63
51305;HTU21D;37392;50.964;6.952;2022-10-31T15:28:19;19.11;77.37
51305;HTU21D;37392;50.964;6.952;2022-10-31T15:31:00;19.01;77.69
51305;HTU21D;37392;50.964;6.952;2022-10-31T15:33:29;18.93;77.92
51305;HTU21D;37392;50.964;6.952;2022-10-31T15:35:58;18.81;78.14
51305;HTU21D;37392;50.964;6.952;2022-10-31T15:38:26;18.77;78.06
51305;HTU21D;37392;50.964;6.952;2022-10-31T15:41:04;18.70;78.07
51305;HTU21D;37392;50.964;6.952;2022-10-31T15:43:35;18.65;78.27
51305;HTU21D;37392;50.964;6.952;2022-10-31T15:46:03;18.51;78.55
51305;HTU21D;37392;50.964;6.952;2022-10-31T15:48:29;18.48;78.68
51305;HTU21D;37392;50.964;6.952;2022-10-31T15:51:00;18.34;79.14
51305;HTU21D;37392;50.964;6.952;2022-10-31T15:53:36;18.21;79.49
51305;HTU21D;37392;50.964;6.952;2022-10-31T15:56:21;18.17;79.71
51305;HTU21D;37392;50.964;6.952;2022-10-31T15:58:51;18.14;79.75
51305;HTU21D;37392;50.964;6.952;2022-10-31T16:01:22;18.07;79.80
51305;HTU21D;37392;50.964;6.952;2022-10-31T16:06:27;17.97;80.24
51305;HTU21D;37392;50.964;6.952;2022-10-31T16:08:53;17.93;80.34
51305;HTU21D;37392;50.964;6.952;2022-10-31T16:11:29;17.87;80.65
51305;HTU21D;37392;50.964;6.952;2022-10-31T16:14:13;17.82;80.82
51305;HTU21D;37392;50.964;6.952;2022-10-31T16:16:47;17.75;81.03
51305;HTU21D;37392;50.964;6.952;2022-10-31T16:19:21;17.66;81.46
51305;HTU21D;37392;50.964;6.952;2022-10-31T16:22:11;17.66;81.53
51305;HTU21D;37392;50.964;6.952;2022-10-31T16:25:04;17.59;81.91
51305;HTU21D;37392;50.964;6.952;2022-10-31T16:27:39;17.53;82.14
51305;HTU21D;37392;50.964;6.952;2022-10-31T16:30:29;17.47;82.60
51305;HTU21D;37392;50.964;6.952;2022-10-31T16:33:34;17.44;82.79
51305;HTU21D;37392;50.964;6.952;2022-10-31T16:38:53;17.29;83.56
51305;HTU21D;37392;50.964;6.952;2022-10-31T16:41:23;17.31;83.73
51305;HTU21D;37392;50.964;6.952;2022-10-31T16:43:50;17.29;83.90
51305;HTU21D;37392;50.964;6.952;2022-10-31T16:46:26;17.28;83.99
51305;HTU21D;37392;50.964;6.952;2022-10-31T16:48:52;17.24;84.18
51305;HTU21D;37392;50.964;6.952;2022-10-31T16:51:19;17.21;84.27
51305;HTU21D;37392;50.964;6.952;2022-10-31T16:53:45;17.19;84.25
51305;HTU21D;37392;50.964;6.952;2022-10-31T16:56:16;17.34;84.01
51305;HTU21D;37392;50.964;6.952;2022-10-31T16:58:43;17.28;83.97
51305;HTU21D;37392;50.964;6.952;2022-10-31T17:01:10;17.32;83.85
51305;HTU21D;37392;50.964;6.952;2022-10-31T17:03:39;17.34;83.81
51305;HTU21D;37392;50.964;6.952;2022-10-31T17:06:05;17.34;83.82
51305;HTU21D;37392;50.964;6.952;2022-10-31T17:08:31;17.29;84.15
51305;HTU21D;37392;50.964;6.952;2022-10-31T17:10:58;17.31;84.15
51305;HTU21D;37392;50.964;6.952;2022-10-31T17:13:29;17.29;84.33
51305;HTU21D;37392;50.964;6.952;2022-10-31T17:15:58;17.15;84.67
51305;HTU21D;37392;50.964;6.952;2022-10-31T17:18:25;17.13;84.88
51305;HTU21D;37392;50.964;6.952;2022-10-31T17:20:55;17.10;84.78
51305;HTU21D;37392;50.964;6.952;2022-10-31T17:23:23;17.01;84.97
51305;HTU21D;37392;50.964;6.952;2022-10-31T17:25:49;16.93;85.24
51305;HTU21D;37392;50.964;6.952;2022-10-31T17:28:14;16.88;85.55
51305;HTU21D;37392;50.964;6.952;2022-10-31T17:30:41;16.87;85.48
51305;HTU21D;37392;50.964;6.952;2022-10-31T17:33:15;16.90;85.29
51305;HTU21D;37392;50.964;6.952;2022-10-31T17:35:44;16.80;85.45
51305;HTU21D;37392;50.964;6.952;2022-10-31T17:38:10;16.80;85.35
51305;HTU21D;37392;50.964;6.952;2022-10-31T17:40:38;16.89;84.90
51305;HTU21D;37392;50.964;6.952;2022-10-31T17:43:04;16.96;84.49
51305;HTU21D;37392;50.964;6.952;2022-10-31T17:45:30;17.03;83.94
51305;HTU21D;37392;50.964;6.952;2022-10-31T17:47:59;16.99;83.87
51305;HTU21D;37392;50.964;6.952;2022-10-31T17:50:25;17.02;83.81
51305;HTU21D;37392;50.964;6.952;2022-10-31T17:52:52;16.98;83.84
51305;HTU21D;37392;50.964;6.952;2022-10-31T17:55:18;16.92;83.92
51305;HTU21D;37392;50.964;6.952;2022-10-31T17:57:44;16.88;83.99
51305;HTU21D;37392;50.964;6.952;2022-10-31T18:00:16;16.91;84.01
51305;HTU21D;37392;50.964;6.952;2022-10-31T18:02:45;16.78;84.30